createdAt,value
2018-08-20T00:00:12.403Z,0
2018-08-20T00:00:52.927Z,0
2018-08-20T00:01:33.262Z,0
2018-08-20T00:02:13.708Z,0
2018-08-20T00:02:54.210Z,0
2018-08-20T00:03:34.478Z,0
2018-08-20T00:04:14.928Z,0
2018-08-20T00:04:55.344Z,0
2018-08-20T00:05:35.708Z,0
2018-08-20T00:06:16.370Z,0
2018-08-20T00:06:56.745Z,0
2018-08-20T00:07:37.221Z,0
2018-08-20T00:08:17.456Z,0
2018-08-20T00:08:58.044Z,0
2018-08-20T00:09:38.377Z,0
2018-08-20T00:10:18.710Z,0
2018-08-20T00:10:59.083Z,0
2018-08-20T00:11:39.561Z,0
2018-08-20T00:12:19.975Z,0
2018-08-20T00:13:00.392Z,0
2018-08-20T00:13:40.802Z,0
2018-08-20T00:14:21.086Z,0
2018-08-20T00:15:01.636Z,0
2018-08-20T00:15:42.028Z,0
2018-08-20T00:16:22.437Z,0
2018-08-20T00:17:02.941Z,0
2018-08-20T00:17:43.406Z,0
2018-08-20T00:18:23.785Z,0
2018-08-20T00:19:04.253Z,0
2018-08-20T00:19:44.653Z,0
2018-08-20T00:20:25.091Z,0
2018-08-20T00:21:05.494Z,0
2018-08-20T00:21:45.887Z,0
2018-08-20T00:22:26.272Z,0
2018-08-20T00:23:06.742Z,0
2018-08-20T00:23:47.048Z,0
2018-08-20T00:24:27.439Z,0
2018-08-20T00:25:07.864Z,0
2018-08-20T00:25:48.379Z,0
2018-08-20T00:26:28.717Z,0
2018-08-20T00:27:09.320Z,0
2018-08-20T00:27:49.520Z,0
2018-08-20T00:28:30.034Z,0
2018-08-20T00:29:10.385Z,0
2018-08-20T00:29:50.784Z,0
2018-08-20T00:30:31.209Z,0
2018-08-20T00:31:11.553Z,0
2018-08-20T00:31:51.921Z,0
2018-08-20T00:32:32.335Z,0
2018-08-20T00:33:12.777Z,0
2018-08-20T00:33:53.230Z,0
2018-08-20T00:34:33.607Z,0
2018-08-20T00:35:13.986Z,0
2018-08-20T00:35:54.464Z,0
2018-08-20T00:36:34.919Z,0
2018-08-20T00:37:15.204Z,0
2018-08-20T00:37:55.617Z,0
2018-08-20T00:38:36.106Z,0
2018-08-20T00:39:16.737Z,0
2018-08-20T00:39:57.045Z,0
2018-08-20T00:40:37.430Z,0
2018-08-20T00:41:17.944Z,0
2018-08-20T00:41:58.288Z,0
2018-08-20T00:42:38.803Z,0
2018-08-20T00:43:19.166Z,0
2018-08-20T00:43:59.670Z,0
2018-08-20T00:44:40.094Z,0
2018-08-20T00:45:20.510Z,0
2018-08-20T00:46:00.915Z,0
2018-08-20T00:46:41.414Z,0
2018-08-20T00:47:21.849Z,0
2018-08-20T00:48:02.118Z,0
2018-08-20T00:48:42.584Z,0
2018-08-20T00:49:23.023Z,0
2018-08-20T00:50:03.488Z,0
2018-08-20T00:50:43.807Z,0
2018-08-20T00:51:24.345Z,0
2018-08-20T00:52:04.695Z,0
2018-08-20T00:52:45.072Z,0
2018-08-20T00:53:25.559Z,0
2018-08-20T00:54:05.898Z,0
2018-08-20T00:54:46.386Z,0
2018-08-20T00:55:26.834Z,0
2018-08-20T00:56:07.241Z,0
2018-08-20T00:56:47.667Z,0
2018-08-20T00:57:28.075Z,0
2018-08-20T00:58:08.619Z,0
2018-08-20T00:58:48.996Z,0
2018-08-20T00:59:29.292Z,0
2018-08-20T01:00:09.839Z,0
2018-08-20T01:00:50.227Z,0
2018-08-20T01:01:30.569Z,0
2018-08-20T01:02:10.958Z,0
2018-08-20T01:02:51.408Z,0
2018-08-20T01:03:31.743Z,0
2018-08-20T01:04:12.244Z,0
2018-08-20T01:04:52.518Z,0
2018-08-20T01:07:05.379Z,0
2018-08-20T01:07:45.774Z,0
2018-08-20T01:08:26.266Z,0
2018-08-20T01:09:06.665Z,0
2018-08-20T01:09:47.143Z,0
2018-08-20T01:10:27.565Z,0
2018-08-20T01:11:07.921Z,0
2018-08-20T01:11:48.356Z,0
2018-08-20T01:12:28.826Z,0
2018-08-20T01:13:09.323Z,0
2018-08-20T01:13:49.619Z,0
2018-08-20T01:14:30.005Z,0
2018-08-20T01:15:10.539Z,0
2018-08-20T01:15:50.889Z,0
2018-08-20T01:16:31.335Z,0
2018-08-20T01:17:11.854Z,0
2018-08-20T01:17:52.365Z,0
2018-08-20T01:18:32.565Z,0
2018-08-20T01:19:12.975Z,0
2018-08-20T01:19:53.454Z,0
2018-08-20T01:20:33.782Z,0
2018-08-20T01:21:14.161Z,0
2018-08-20T01:21:54.604Z,0
2018-08-20T01:22:35.167Z,0
2018-08-20T01:23:15.607Z,0
2018-08-20T01:23:56.007Z,0
2018-08-20T01:24:36.446Z,0
2018-08-20T01:25:16.758Z,0
2018-08-20T01:25:57.166Z,0
2018-08-20T01:26:37.638Z,0
2018-08-20T01:27:18.014Z,0
2018-08-20T01:27:58.429Z,0
2018-08-20T01:28:38.948Z,0
2018-08-20T01:29:19.282Z,0
2018-08-20T01:29:59.739Z,0
2018-08-20T01:30:40.163Z,0
2018-08-20T01:31:20.476Z,0
2018-08-20T01:32:00.965Z,0
2018-08-20T01:32:41.373Z,0
2018-08-20T01:33:21.998Z,0
2018-08-20T01:34:02.197Z,0
2018-08-20T01:34:42.679Z,0
2018-08-20T01:35:23.232Z,0
2018-08-20T01:36:03.567Z,0
2018-08-20T01:36:43.898Z,0
2018-08-20T01:37:24.399Z,0
2018-08-20T01:38:04.782Z,0
2018-08-20T01:38:45.152Z,0
2018-08-20T01:39:25.683Z,0
2018-08-20T01:40:06.089Z,0
2018-08-20T01:40:46.427Z,0
2018-08-20T01:41:26.806Z,0
2018-08-20T01:42:07.356Z,0
2018-08-20T01:42:47.930Z,0
2018-08-20T01:43:28.093Z,0
2018-08-20T01:44:08.556Z,0
2018-08-20T01:44:48.925Z,0
2018-08-20T01:45:29.234Z,0
2018-08-20T01:46:09.686Z,0
2018-08-20T01:46:50.135Z,0
2018-08-20T01:47:30.534Z,0
2018-08-20T01:48:11.066Z,0
2018-08-20T01:48:51.312Z,0
2018-08-20T01:49:31.781Z,0
2018-08-20T01:50:12.309Z,0
2018-08-20T01:50:52.589Z,0
2018-08-20T01:51:33.146Z,0
2018-08-20T01:52:13.488Z,0
2018-08-20T01:52:53.908Z,0
2018-08-20T01:53:34.359Z,0
2018-08-20T01:54:14.770Z,0
2018-08-20T01:54:55.256Z,0
2018-08-20T01:55:35.592Z,0
2018-08-20T01:56:16.143Z,0
2018-08-20T01:56:56.502Z,0
2018-08-20T01:57:36.918Z,0
2018-08-20T01:58:17.267Z,0
2018-08-20T01:58:57.653Z,0
2018-08-20T01:59:38.082Z,0
2018-08-20T02:00:18.525Z,0
2018-08-20T02:00:59.041Z,0
2018-08-20T02:01:39.349Z,0
2018-08-20T02:02:19.831Z,0
2018-08-20T02:03:00.232Z,0
2018-08-20T02:03:40.512Z,0
2018-08-20T02:04:21.011Z,0
2018-08-20T02:05:01.381Z,0
2018-08-20T02:05:41.846Z,0
2018-08-20T02:06:22.371Z,0
2018-08-20T02:07:02.746Z,0
2018-08-20T02:07:43.226Z,0
2018-08-20T02:08:23.637Z,0
2018-08-20T02:09:03.957Z,0
2018-08-20T02:09:44.485Z,0
2018-08-20T02:10:24.879Z,0
2018-08-20T02:11:05.234Z,0
2018-08-20T02:11:45.659Z,0
2018-08-20T02:12:26.147Z,0
2018-08-20T02:13:06.625Z,0
2018-08-20T02:13:47.075Z,0
2018-08-20T02:14:27.450Z,0
2018-08-20T02:15:07.870Z,0
2018-08-20T02:15:48.312Z,0
2018-08-20T02:16:28.763Z,0
2018-08-20T02:17:09.069Z,0
2018-08-20T02:17:49.427Z,0
2018-08-20T02:18:29.964Z,0
2018-08-20T02:19:10.427Z,0
2018-08-20T02:19:50.753Z,0
2018-08-20T02:20:31.331Z,0
2018-08-20T02:21:11.737Z,0
2018-08-20T02:21:52.110Z,0
2018-08-20T02:22:32.483Z,0
2018-08-20T02:23:13.013Z,0
2018-08-20T02:23:53.398Z,0
2018-08-20T02:24:33.734Z,0
2018-08-20T02:25:14.160Z,0
2018-08-20T02:25:54.650Z,0
2018-08-20T02:26:34.912Z,0
2018-08-20T02:27:15.365Z,0
2018-08-20T02:27:55.860Z,0
2018-08-20T02:28:36.224Z,0
2018-08-20T02:29:16.775Z,0
2018-08-20T02:29:57.049Z,0
2018-08-20T02:30:37.428Z,0
2018-08-20T02:31:17.817Z,0
2018-08-20T02:31:58.304Z,0
2018-08-20T02:32:38.645Z,0
2018-08-20T02:33:19.144Z,0
2018-08-20T02:33:59.559Z,0
2018-08-20T02:34:39.968Z,0
2018-08-20T02:35:20.344Z,0
2018-08-20T02:36:00.692Z,0
2018-08-20T02:36:41.231Z,0
2018-08-20T02:37:22.268Z,0
2018-08-20T02:38:02.760Z,0
2018-08-20T02:38:43.104Z,0
2018-08-20T02:39:23.547Z,0
2018-08-20T02:40:03.989Z,0
2018-08-20T02:40:44.401Z,0
2018-08-20T02:41:24.892Z,0
2018-08-20T02:42:05.456Z,0
2018-08-20T02:42:45.824Z,0
2018-08-20T02:43:26.458Z,0
2018-08-20T02:44:06.723Z,0
2018-08-20T02:44:47.128Z,0
2018-08-20T02:45:27.592Z,0
2018-08-20T02:46:08.675Z,0
2018-08-20T02:46:49.027Z,0
2018-08-20T02:47:29.473Z,0
2018-08-20T02:48:10.075Z,0
2018-08-20T02:48:50.521Z,0
2018-08-20T02:49:31.309Z,0
2018-08-20T02:50:11.655Z,0
2018-08-20T02:50:52.020Z,0
2018-08-20T02:51:32.350Z,0
2018-08-20T02:52:12.943Z,0
2018-08-20T02:52:53.695Z,0
2018-08-20T02:53:34.033Z,0
2018-08-20T02:54:14.438Z,0
2018-08-20T02:54:54.812Z,0
2018-08-20T02:55:36.109Z,0
2018-08-20T02:56:15.702Z,0
2018-08-20T02:56:56.141Z,0
2018-08-20T02:57:36.573Z,0
2018-08-20T02:58:16.994Z,0
2018-08-20T02:58:57.572Z,0
2018-08-20T02:59:37.814Z,0
2018-08-20T03:00:18.288Z,0
2018-08-20T03:00:58.732Z,0
2018-08-20T03:01:39.090Z,0
2018-08-20T03:02:19.515Z,0
2018-08-20T03:02:59.984Z,0
2018-08-20T03:03:40.691Z,0
2018-08-20T03:04:22.133Z,0
2018-08-20T03:05:02.879Z,0
2018-08-20T03:05:43.200Z,0
2018-08-20T03:06:23.906Z,0
2018-08-20T03:07:04.350Z,0
2018-08-20T03:07:44.717Z,0
2018-08-20T03:08:25.104Z,0
2018-08-20T03:09:05.529Z,0
2018-08-20T03:09:45.917Z,0
2018-08-20T03:10:26.488Z,0
2018-08-20T03:11:06.895Z,0
2018-08-20T03:11:47.270Z,0
2018-08-20T03:12:28.002Z,0
2018-08-20T03:13:08.283Z,0
2018-08-20T03:13:51.644Z,0
2018-08-20T03:14:31.854Z,0
2018-08-20T03:15:12.505Z,0
2018-08-20T03:15:53.012Z,0
2018-08-20T03:16:33.478Z,0
2018-08-20T03:17:14.523Z,0
2018-08-20T03:17:57.483Z,0
2018-08-20T03:18:38.976Z,0
2018-08-20T03:19:19.351Z,0
2018-08-20T03:20:01.574Z,0
2018-08-20T03:20:42.178Z,0
2018-08-20T03:21:23.864Z,0
2018-08-20T03:22:04.307Z,0
2018-08-20T03:22:44.854Z,0
2018-08-20T03:23:25.708Z,0
2018-08-20T03:24:06.107Z,0
2018-08-20T03:24:49.044Z,0
2018-08-20T03:25:29.477Z,0
2018-08-20T03:26:09.920Z,0
2018-08-20T03:26:50.420Z,0
2018-08-20T03:27:30.783Z,0
2018-08-20T03:28:11.294Z,0
2018-08-20T03:28:51.614Z,0
2018-08-20T03:29:32.671Z,0
2018-08-20T03:30:14.570Z,0
2018-08-20T03:30:53.789Z,0
2018-08-20T03:31:34.202Z,0
2018-08-20T03:32:14.868Z,0
2018-08-20T03:32:55.235Z,0
2018-08-20T03:33:35.669Z,0
2018-08-20T03:34:16.189Z,0
2018-08-20T03:34:56.694Z,0
2018-08-20T03:35:37.464Z,0
2018-08-20T03:36:17.860Z,0
2018-08-20T03:36:58.197Z,0
2018-08-20T03:37:38.809Z,0
2018-08-20T03:38:19.266Z,0
2018-08-20T03:38:59.925Z,0
2018-08-20T03:39:40.133Z,0
2018-08-20T03:40:20.671Z,0
2018-08-20T03:41:01.055Z,0
2018-08-20T03:41:41.474Z,0
2018-08-20T03:42:21.906Z,0
2018-08-20T03:43:03.006Z,0
2018-08-20T03:43:43.232Z,0
2018-08-20T03:44:23.675Z,0
2018-08-20T03:45:04.004Z,0
2018-08-20T03:45:44.425Z,0
2018-08-20T03:46:24.951Z,0
2018-08-20T03:47:05.270Z,0
2018-08-20T03:47:46.018Z,0
2018-08-20T03:48:26.376Z,0
2018-08-20T03:49:06.824Z,0
2018-08-20T03:49:47.673Z,0
2018-08-20T03:50:27.977Z,0
2018-08-20T03:51:08.396Z,0
2018-08-20T03:51:48.849Z,0
2018-08-20T03:52:29.200Z,0
2018-08-20T03:53:09.622Z,0
2018-08-20T03:53:50.049Z,0
2018-08-20T03:54:30.487Z,0
2018-08-20T03:55:10.847Z,0
2018-08-20T03:55:51.250Z,0
2018-08-20T03:56:31.808Z,0
2018-08-20T03:57:12.104Z,0
2018-08-20T03:57:52.472Z,0
2018-08-20T03:58:32.845Z,0
2018-08-20T03:59:13.301Z,0
2018-08-20T03:59:53.726Z,0
2018-08-20T04:00:34.147Z,0
2018-08-20T04:01:14.515Z,0
2018-08-20T04:01:54.935Z,0
2018-08-20T04:02:35.311Z,0
2018-08-20T04:03:15.698Z,0
2018-08-20T04:03:56.116Z,0
2018-08-20T04:04:36.670Z,0
2018-08-20T04:05:16.993Z,0
2018-08-20T04:05:57.398Z,0
2018-08-20T04:06:37.805Z,0
2018-08-20T04:07:18.222Z,0
2018-08-20T04:07:58.657Z,0
2018-08-20T04:08:39.251Z,0
2018-08-20T04:09:19.529Z,0
2018-08-20T04:10:00.010Z,0
2018-08-20T04:10:40.390Z,0
2018-08-20T04:11:20.822Z,0
2018-08-20T04:12:01.157Z,0
2018-08-20T04:12:42.361Z,0
2018-08-20T04:13:22.775Z,0
2018-08-20T04:14:03.235Z,0
2018-08-20T04:14:43.577Z,0
2018-08-20T04:15:24.058Z,0
2018-08-20T04:16:04.455Z,0
2018-08-20T04:16:44.886Z,0
2018-08-20T04:17:25.192Z,0
2018-08-20T04:18:05.706Z,0
2018-08-20T04:18:46.001Z,0
2018-08-20T04:19:26.428Z,0
2018-08-20T04:20:06.888Z,0
2018-08-20T04:20:47.295Z,0
2018-08-20T04:21:27.626Z,0
2018-08-20T04:22:08.045Z,0
2018-08-20T04:22:48.466Z,0
2018-08-20T04:23:28.903Z,0
2018-08-20T04:24:09.366Z,0
2018-08-20T04:24:49.798Z,0
2018-08-20T04:25:30.224Z,0
2018-08-20T04:26:10.626Z,0
2018-08-20T04:26:51.047Z,0
2018-08-20T04:27:31.413Z,0
2018-08-20T04:28:11.860Z,0
2018-08-20T05:06:33.812Z,10
2018-08-20T05:07:14.088Z,10
2018-08-20T05:07:54.556Z,10
2018-08-20T05:08:34.932Z,10
2018-08-20T05:09:15.304Z,10
2018-08-20T05:09:55.702Z,10
2018-08-20T05:10:36.130Z,10
2018-08-20T05:11:16.546Z,5
2018-08-20T05:11:57.047Z,5
2018-08-20T05:12:37.376Z,5
2018-08-20T05:13:17.755Z,5
2018-08-20T05:13:58.179Z,5
2018-08-20T05:14:38.534Z,5
2018-08-20T05:15:19.012Z,5
2018-08-20T05:15:59.369Z,5
2018-08-20T05:16:39.806Z,5
2018-08-20T05:17:20.166Z,5
2018-08-20T05:18:00.628Z,5
2018-08-20T05:18:41.096Z,5
2018-08-20T05:19:21.406Z,10
2018-08-20T05:20:01.796Z,10
2018-08-20T05:20:42.231Z,10
2018-08-20T05:21:22.612Z,5
2018-08-20T05:22:03.013Z,5
2018-08-20T05:22:43.424Z,5
2018-08-20T05:25:01.062Z,5
2018-08-20T05:25:41.405Z,5
2018-08-20T05:26:21.823Z,5
2018-08-20T05:27:02.224Z,5
2018-08-20T05:27:42.722Z,5
2018-08-20T05:28:23.084Z,5
2018-08-20T05:29:03.511Z,5
2018-08-20T05:29:43.951Z,5
2018-08-20T05:30:24.446Z,5
2018-08-20T05:31:04.804Z,5
2018-08-20T05:31:45.216Z,5
2018-08-20T05:32:25.684Z,5
2018-08-20T05:33:06.012Z,5
2018-08-20T05:33:46.438Z,5
2018-08-20T05:34:26.910Z,5
2018-08-20T05:35:07.310Z,5
2018-08-20T05:35:47.690Z,5
2018-08-20T05:36:28.153Z,5
2018-08-20T05:37:08.558Z,5
2018-08-20T05:37:48.920Z,5
2018-08-20T05:38:29.341Z,5
2018-08-20T05:39:09.745Z,5
2018-08-20T05:39:50.189Z,5
2018-08-20T05:40:30.618Z,5
2018-08-20T05:41:11.019Z,5
2018-08-20T05:41:51.431Z,5
2018-08-20T05:42:31.859Z,5
2018-08-20T05:43:12.275Z,5
2018-08-20T05:43:53.038Z,5
2018-08-20T05:44:33.492Z,5
2018-08-20T05:45:13.892Z,5
2018-08-20T05:45:54.308Z,5
2018-08-20T05:46:36.183Z,5
2018-08-20T05:47:17.234Z,5
2018-08-20T05:47:58.255Z,5
2018-08-20T05:48:38.182Z,5
2018-08-20T05:49:18.601Z,5
2018-08-20T05:49:59.038Z,5
2018-08-20T05:50:39.401Z,5
2018-08-20T05:51:19.921Z,5
2018-08-20T05:52:00.340Z,5
2018-08-20T05:52:41.013Z,5
2018-08-20T05:53:21.218Z,5
2018-08-20T05:54:01.645Z,5
2018-08-20T05:54:42.046Z,5
2018-08-20T05:55:22.571Z,5
2018-08-20T05:56:02.890Z,5
2018-08-20T05:56:43.314Z,5
2018-08-20T05:57:23.788Z,5
2018-08-20T05:58:05.210Z,5
2018-08-20T05:58:45.586Z,5
2018-08-20T05:59:26.038Z,5
2018-08-20T06:00:06.409Z,5
2018-08-20T06:00:46.790Z,5
2018-08-20T06:01:27.178Z,5
2018-08-20T06:02:07.576Z,5
2018-08-20T06:02:47.960Z,5
2018-08-20T06:03:28.369Z,5
2018-08-20T06:04:08.769Z,5
2018-08-20T06:04:49.173Z,5
2018-08-20T06:05:29.568Z,5
2018-08-20T06:06:09.960Z,5
2018-08-20T06:06:51.050Z,5
2018-08-20T06:07:30.890Z,5
2018-08-20T06:08:11.820Z,5
2018-08-20T06:08:52.309Z,10
2018-08-20T06:09:33.205Z,10
2018-08-20T06:10:14.148Z,10
2018-08-20T06:10:54.814Z,10
2018-08-20T06:11:35.435Z,10
2018-08-20T06:12:16.182Z,10
2018-08-20T06:12:56.839Z,10
2018-08-20T06:13:37.864Z,10
2018-08-20T06:14:19.121Z,10
2018-08-20T06:14:59.125Z,10
2018-08-20T06:15:39.547Z,10
2018-08-20T06:16:20.102Z,10
2018-08-20T06:17:01.536Z,10
2018-08-20T06:17:41.460Z,10
2018-08-20T06:18:22.588Z,10
2018-08-20T06:19:03.047Z,10
2018-08-20T06:19:43.692Z,10
2018-08-20T06:20:25.111Z,10
2018-08-20T06:21:06.201Z,10
2018-08-20T06:21:46.441Z,10
2018-08-20T06:22:27.456Z,10
2018-08-20T06:23:07.900Z,10
2018-08-20T06:23:49.018Z,10
2018-08-20T06:24:29.397Z,10
2018-08-20T06:25:10.545Z,10
2018-08-20T06:25:51.209Z,10
2018-08-20T06:26:31.601Z,10
2018-08-20T06:27:12.168Z,10
2018-08-20T06:27:52.974Z,10
2018-08-20T06:28:33.531Z,10
2018-08-20T06:29:15.046Z,10
2018-08-20T06:29:55.252Z,10
2018-08-20T06:30:35.792Z,10
2018-08-20T06:31:16.278Z,10
2018-08-20T06:31:57.275Z,10
2018-08-20T06:32:38.564Z,10
2018-08-20T06:33:18.459Z,10
2018-08-20T06:33:59.639Z,15
2018-08-20T06:34:40.542Z,15
2018-08-20T06:35:20.714Z,15
2018-08-20T06:36:01.432Z,15
2018-08-20T06:36:42.168Z,10
2018-08-20T06:37:23.042Z,10
2018-08-20T06:38:04.552Z,10
2018-08-20T06:38:44.390Z,10
2018-08-20T06:39:25.496Z,10
2018-08-20T06:40:06.567Z,10
2018-08-20T06:40:47.130Z,10
2018-08-20T06:41:27.224Z,10
2018-08-20T06:42:08.247Z,10
2018-08-20T06:42:48.834Z,10
2018-08-20T06:45:22.905Z,10
2018-08-20T06:46:03.517Z,10
2018-08-20T06:46:44.890Z,10
2018-08-20T06:47:25.299Z,10
2018-08-20T06:48:06.805Z,10
2018-08-20T06:48:47.410Z,10
2018-08-20T06:49:28.032Z,10
2018-08-20T06:50:09.329Z,10
2018-08-20T06:50:49.761Z,10
2018-08-20T06:51:30.490Z,10
2018-08-20T06:52:11.426Z,10
2018-08-20T06:52:52.910Z,10
2018-08-20T06:53:33.786Z,10
2018-08-20T06:54:14.810Z,10
2018-08-20T06:54:55.823Z,10
2018-08-20T06:55:35.717Z,10
2018-08-20T06:56:16.398Z,10
2018-08-20T06:56:58.050Z,10
2018-08-20T06:57:38.352Z,10
2018-08-20T06:58:19.114Z,10
2018-08-20T06:58:59.746Z,10
2018-08-20T06:59:40.429Z,10
2018-08-20T07:00:22.584Z,10
2018-08-20T07:01:02.512Z,10
2018-08-20T07:01:43.526Z,10
2018-08-20T07:02:24.092Z,10
2018-08-20T07:03:05.094Z,10
2018-08-20T07:03:45.979Z,10
2018-08-20T07:04:27.422Z,10
2018-08-20T07:05:07.963Z,10
2018-08-20T07:05:48.888Z,10
2018-08-20T07:06:29.768Z,10
2018-08-20T07:07:10.241Z,10
2018-08-20T07:07:51.543Z,10
2018-08-20T07:08:31.574Z,10
2018-08-20T07:09:12.829Z,10
2018-08-20T07:09:52.971Z,10
2018-08-20T07:10:34.318Z,10
2018-08-20T07:11:15.350Z,10
2018-08-20T07:11:55.881Z,15
2018-08-20T07:12:36.559Z,15
2018-08-20T07:13:18.467Z,15
2018-08-20T07:13:58.205Z,15
2018-08-20T07:14:38.965Z,15
2018-08-20T07:15:20.569Z,15
2018-08-20T07:16:00.399Z,15
2018-08-20T07:16:41.051Z,15
2018-08-20T07:17:22.374Z,15
2018-08-20T07:18:03.516Z,15
2018-08-20T07:18:43.464Z,15
2018-08-20T07:19:24.032Z,10
2018-08-20T07:20:05.323Z,10
2018-08-20T07:23:09.775Z,10
2018-08-20T07:24:02.899Z,10
2018-08-20T07:24:57.096Z,10
2018-08-20T07:25:55.314Z,10
2018-08-20T07:26:45.213Z,15
2018-08-20T07:27:42.045Z,15
2018-08-20T07:28:23.273Z,15
2018-08-20T07:29:04.069Z,15
2018-08-20T07:29:45.122Z,15
2018-08-20T07:30:25.992Z,15
2018-08-20T07:31:06.716Z,15
2018-08-20T07:31:47.827Z,15
2018-08-20T07:32:28.850Z,15
2018-08-20T07:33:10.428Z,15
2018-08-20T07:33:51.276Z,15
2018-08-20T07:34:32.012Z,15
2018-08-20T07:35:12.996Z,15
2018-08-20T07:35:53.482Z,15
2018-08-20T07:36:35.196Z,15
2018-08-20T07:37:15.170Z,15
2018-08-20T07:37:55.654Z,15
2018-08-20T07:38:37.392Z,15
2018-08-20T07:39:17.122Z,15
2018-08-20T07:39:57.752Z,15
2018-08-20T07:40:38.606Z,15
2018-08-20T07:41:19.315Z,15
2018-08-20T07:42:00.061Z,15
2018-08-20T07:42:41.204Z,20
2018-08-20T07:43:22.218Z,15
2018-08-20T07:44:03.057Z,15
2018-08-20T07:44:44.603Z,15
2018-08-20T07:45:24.800Z,15
2018-08-20T07:46:05.305Z,15
2018-08-20T07:46:46.688Z,15
2018-08-20T07:47:27.805Z,15
2018-08-20T07:48:08.564Z,15
2018-08-20T07:48:48.985Z,15
2018-08-20T07:49:30.125Z,15
2018-08-20T07:50:11.397Z,15
2018-08-20T07:50:51.623Z,15
2018-08-20T07:51:32.307Z,15
2018-08-20T07:52:21.134Z,15
2018-08-20T07:53:08.683Z,15
2018-08-20T07:53:49.586Z,15
2018-08-20T07:54:44.878Z,15
2018-08-20T07:55:40.878Z,15
2018-08-20T07:58:31.551Z,15
2018-08-20T07:59:09.815Z,15
2018-08-20T07:59:50.887Z,15
2018-08-20T08:00:32.858Z,15
2018-08-20T08:01:19.501Z,15
2018-08-20T08:01:59.781Z,15
2018-08-20T08:02:40.552Z,15
2018-08-20T08:03:21.520Z,15
2018-08-20T08:04:04.337Z,15
2018-08-20T08:04:44.709Z,15
2018-08-20T08:05:25.630Z,15
2018-08-20T08:06:06.451Z,20
2018-08-20T08:06:48.107Z,20
2018-08-20T08:17:37.643Z,25
2018-08-20T08:19:56.418Z,25
2018-08-20T08:20:36.843Z,30
2018-08-20T08:21:17.251Z,30
2018-08-20T08:21:57.819Z,30
2018-08-20T08:22:38.165Z,30
2018-08-20T08:23:18.800Z,30
2018-08-20T08:23:59.432Z,25
2018-08-20T08:24:41.256Z,25
2018-08-20T08:25:21.695Z,25
2018-08-20T08:26:02.185Z,30
2018-08-20T08:26:42.622Z,30
2018-08-20T08:27:23.118Z,30
2018-08-20T08:28:03.603Z,30
2018-08-20T08:28:43.945Z,35
2018-08-20T08:29:24.483Z,35
2018-08-20T08:30:04.943Z,40
2018-08-20T08:30:45.347Z,40
2018-08-20T08:31:25.755Z,40
2018-08-20T08:32:06.258Z,40
2018-08-20T08:32:46.734Z,35
2018-08-20T08:33:27.189Z,35
2018-08-20T08:34:07.641Z,35
2018-08-20T08:34:48.149Z,35
2018-08-20T08:35:28.505Z,35
2018-08-20T08:36:09.486Z,35
2018-08-20T08:36:50.095Z,35
2018-08-20T08:37:30.662Z,35
2018-08-20T08:38:11.190Z,35
2018-08-20T08:38:51.460Z,35
2018-08-20T08:39:31.869Z,35
2018-08-20T08:40:12.395Z,35
2018-08-20T08:40:52.858Z,30
2018-08-20T08:41:33.391Z,30
2018-08-20T08:42:13.817Z,30
2018-08-20T08:42:54.245Z,30
2018-08-20T08:43:35.803Z,30
2018-08-20T08:44:15.284Z,30
2018-08-20T08:44:55.748Z,30
2018-08-20T08:45:36.230Z,30
2018-08-20T08:46:16.678Z,30
2018-08-20T08:46:57.196Z,25
2018-08-20T08:47:37.707Z,25
2018-08-20T08:48:18.126Z,25
2018-08-20T08:48:58.753Z,25
2018-08-20T08:49:39.190Z,25
2018-08-20T08:50:19.776Z,25
2018-08-20T08:51:00.144Z,25
2018-08-20T08:51:40.794Z,25
2018-08-20T08:52:21.190Z,25
2018-08-20T08:53:01.880Z,20
2018-08-20T08:53:42.438Z,25
2018-08-20T08:54:23.005Z,25
2018-08-20T08:55:03.809Z,25
2018-08-20T08:55:44.815Z,20
2018-08-20T08:56:25.824Z,20
2018-08-20T08:57:05.315Z,20
2018-08-20T08:57:45.974Z,20
2018-08-20T08:58:26.453Z,20
2018-08-20T08:59:06.878Z,20
2018-08-20T08:59:47.341Z,20
2018-08-20T09:00:27.965Z,20
2018-08-20T09:01:08.372Z,20
2018-08-20T09:01:48.830Z,20
2018-08-20T09:02:29.341Z,20
2018-08-20T09:03:10.789Z,15
2018-08-20T09:03:50.605Z,15
2018-08-20T09:04:31.089Z,15
2018-08-20T09:05:11.588Z,20
2018-08-20T09:05:52.714Z,15
2018-08-20T09:06:32.966Z,15
2018-08-20T09:07:13.575Z,15
2018-08-20T09:07:55.361Z,15
2018-08-20T09:08:35.023Z,15
2018-08-20T09:09:15.408Z,15
2018-08-20T09:09:56.533Z,15
2018-08-20T09:10:37.709Z,15
2018-08-20T09:11:18.388Z,15
2018-08-20T09:12:00.014Z,15
2018-08-20T09:12:39.681Z,15
2018-08-20T09:13:20.807Z,15
2018-08-20T09:14:02.324Z,15
2018-08-20T09:14:42.264Z,15
2018-08-20T09:15:23.830Z,15
2018-08-20T09:16:05.438Z,15
2018-08-20T09:16:46.087Z,15
2018-08-20T09:17:26.972Z,15
2018-08-20T09:18:09.805Z,15
2018-08-20T09:18:49.827Z,15
2018-08-20T09:19:30.471Z,15
2018-08-20T09:20:11.300Z,15
2018-08-20T09:20:51.931Z,15
2018-08-20T09:21:33.326Z,15
2018-08-20T09:22:13.211Z,15
2018-08-20T09:22:53.672Z,15
2018-08-20T09:23:34.353Z,15
2018-08-20T09:24:15.820Z,15
2018-08-20T09:24:55.457Z,15
2018-08-20T09:25:36.805Z,15
2018-08-20T09:26:16.964Z,15
2018-08-20T09:26:57.405Z,15
2018-08-20T09:27:37.886Z,15
2018-08-20T09:28:18.610Z,15
2018-08-20T09:28:59.558Z,15
2018-08-20T09:29:39.764Z,15
2018-08-20T09:30:20.213Z,15
2018-08-20T09:31:00.626Z,15
2018-08-20T09:31:42.276Z,15
2018-08-20T09:32:22.111Z,15
2018-08-20T09:33:02.472Z,15
2018-08-20T09:33:42.984Z,15
2018-08-20T09:34:23.545Z,15
2018-08-20T09:35:03.993Z,15
2018-08-20T09:35:44.429Z,15
2018-08-20T09:36:25.076Z,10
2018-08-20T09:37:05.552Z,10
2018-08-20T09:37:46.157Z,10
2018-08-20T09:38:27.559Z,10
2018-08-20T09:39:07.776Z,10
2018-08-20T09:39:48.822Z,10
2018-08-20T09:40:28.745Z,10
2018-08-20T09:41:09.479Z,10
2018-08-20T09:41:50.042Z,10
2018-08-20T09:42:31.303Z,10
2018-08-20T09:43:12.307Z,10
2018-08-20T09:43:52.500Z,10
2018-08-20T09:44:34.819Z,10
2018-08-20T09:45:14.684Z,10
2018-08-20T09:45:55.149Z,10
2018-08-20T09:46:35.616Z,10
2018-08-20T09:47:16.823Z,10
2018-08-20T09:47:56.625Z,15
2018-08-20T09:48:37.149Z,15
2018-08-20T09:49:18.581Z,15
2018-08-20T09:49:59.103Z,15
2018-08-20T09:50:39.460Z,20
2018-08-20T09:51:19.929Z,20
2018-08-20T09:52:00.963Z,20
2018-08-20T09:52:41.399Z,20
2018-08-20T09:53:22.479Z,20
2018-08-20T09:54:02.258Z,25
2018-08-20T09:54:42.869Z,25
2018-08-20T09:55:23.369Z,25
2018-08-20T09:56:03.845Z,25
2018-08-20T09:56:44.575Z,25
2018-08-20T09:57:25.055Z,25
2018-08-20T09:58:05.519Z,25
2018-08-20T09:58:46.185Z,25
2018-08-20T09:59:26.865Z,25
2018-08-20T10:00:08.318Z,25
2018-08-20T10:00:48.072Z,20
2018-08-20T10:01:29.279Z,20
2018-08-20T10:02:10.319Z,20
2018-08-20T10:02:51.410Z,20
2018-08-20T10:03:31.227Z,20
2018-08-20T10:04:11.713Z,20
2018-08-20T10:04:52.846Z,20
2018-08-20T10:05:33.084Z,20
2018-08-20T10:06:13.737Z,20
2018-08-20T10:06:54.462Z,20
2018-08-20T10:07:34.941Z,20
2018-08-20T10:08:15.372Z,20
2018-08-20T10:08:55.846Z,20
2018-08-20T10:09:36.645Z,20
2018-08-20T10:10:17.022Z,20
2018-08-20T10:10:57.496Z,20
2018-08-20T10:11:37.886Z,20
2018-08-20T10:12:18.638Z,20
2018-08-20T10:12:59.899Z,20
2018-08-20T10:13:40.442Z,20
2018-08-20T10:14:20.891Z,20
2018-08-20T10:15:01.622Z,20
2018-08-20T10:15:42.454Z,25
2018-08-20T10:16:22.596Z,25
2018-08-20T10:17:03.524Z,25
2018-08-20T10:17:44.681Z,25
2018-08-20T10:18:25.146Z,20
2018-08-20T10:19:05.481Z,20
2018-08-20T10:19:45.888Z,20
2018-08-20T10:20:26.936Z,20
2018-08-20T10:21:07.643Z,20
2018-08-20T10:21:49.577Z,20
2018-08-20T10:22:29.901Z,20
2018-08-20T10:23:10.313Z,20
2018-08-20T10:23:50.744Z,20
2018-08-20T10:24:31.200Z,20
2018-08-20T10:25:11.667Z,20
2018-08-20T10:25:52.114Z,20
2018-08-20T10:26:32.546Z,20
2018-08-20T10:27:13.771Z,20
2018-08-20T10:27:55.036Z,20
2018-08-20T10:28:35.246Z,20
2018-08-20T10:29:16.337Z,20
2018-08-20T11:07:47.185Z,20
2018-08-20T11:08:39.445Z,20
2018-08-20T11:09:32.947Z,20
2018-08-20T11:10:25.558Z,20
2018-08-20T11:11:20.083Z,15
2018-08-20T11:12:13.724Z,15
2018-08-20T11:15:14.585Z,15
2018-08-20T11:16:04.593Z,15
2018-08-20T11:16:44.404Z,15
2018-08-20T11:17:24.783Z,15
2018-08-20T11:18:05.263Z,10
2018-08-20T11:18:45.650Z,15
2018-08-20T11:19:26.112Z,15
2018-08-20T11:20:06.504Z,15
2018-08-20T11:20:47.080Z,15
2018-08-20T11:21:27.549Z,20
2018-08-20T11:22:07.883Z,20
2018-08-20T11:22:48.260Z,20
2018-08-20T11:23:29.453Z,25
2018-08-20T11:24:10.143Z,25
2018-08-20T11:26:47.311Z,30
2018-08-20T11:29:39.621Z,30
2018-08-20T11:32:48.273Z,35
2018-08-20T11:33:33.664Z,35
2018-08-20T11:34:15.258Z,40
2018-08-20T11:34:55.975Z,40
2018-08-20T11:35:37.227Z,45
2018-08-20T11:36:18.075Z,45
2018-08-20T11:36:58.487Z,45
2018-08-20T11:37:39.662Z,45
2018-08-20T11:38:25.732Z,45
2018-08-20T11:39:06.524Z,50